Time;durP1;ratioP1;P1;durP2;ratioP2;P2;SDS_P1;SDS_P2;PMS_P1;PMS_P2;Temp;Humidity;BMP_temperature;BMP_pressure;BME280_temperature;BME280_humidity;BME280_pressure;Samples;Min_cycle;Max_cycle;Signal;HPM_P1;HPM_P2
2023/12/30 00:01:39;;;;;;;6.35;1.80;;;6.10;99.90;;;;;;5018100;28;20558;-70
2023/12/30 00:04:05;;;;;;;9.82;1.80;;;6.20;99.90;;;;;;4999055;28;20500;-70
2023/12/30 00:06:31;;;;;;;6.35;1.90;;;6.30;99.90;;;;;;5008867;28;20402;-70
2023/12/30 00:08:57;;;;;;;9.40;2.20;;;6.40;99.90;;;;;;4985307;28;20519;-70
2023/12/30 00:11:22;;;;;;;7.97;2.05;;;6.30;99.90;;;;;;5003275;28;20088;-70
2023/12/30 00:13:48;;;;;;;8.68;1.92;;;6.20;99.90;;;;;;4987532;28;20046;-70
2023/12/30 00:16:14;;;;;;;7.18;1.52;;;6.20;99.90;;;;;;5004312;28;20046;-70
2023/12/30 00:18:40;;;;;;;7.78;1.60;;;6.30;99.90;;;;;;4994801;28;20524;-70
2023/12/30 00:21:06;;;;;;;9.55;1.85;;;6.30;99.90;;;;;;4998182;28;20073;-70
2023/12/30 00:23:33;;;;;;;9.07;2.00;;;6.20;99.90;;;;;;4988963;28;20083;-70
2023/12/30 00:25:58;;;;;;;10.23;1.90;;;6.30;99.90;;;;;;4998827;28;20065;-70
2023/12/30 00:28:24;;;;;;;9.82;2.00;;;6.30;99.90;;;;;;4988211;28;20477;-70
2023/12/30 00:30:50;;;;;;;10.07;1.85;;;6.30;99.90;;;;;;4993151;28;20046;-70
2023/12/30 00:33:16;;;;;;;11.63;2.60;;;6.40;99.90;;;;;;5000382;28;20115;-70
2023/12/30 00:35:41;;;;;;;12.18;1.90;;;6.30;99.90;;;;;;5001426;28;20056;-70
2023/12/30 00:38:07;;;;;;;8.77;2.15;;;6.30;99.90;;;;;;4987967;28;20485;-70
2023/12/30 00:40:33;;;;;;;10.27;2.70;;;6.30;99.90;;;;;;5005927;28;20061;-70
2023/12/30 00:42:58;;;;;;;10.57;1.98;;;6.40;99.90;;;;;;5002463;28;20052;-70
2023/12/30 00:45:24;;;;;;;10.75;2.00;;;6.30;99.90;;;;;;4993055;28;20084;-70
2023/12/30 00:47:50;;;;;;;9.73;1.92;;;6.30;99.90;;;;;;4982134;28;20540;-70
2023/12/30 00:50:16;;;;;;;9.52;2.00;;;6.30;99.90;;;;;;4987350;28;20048;-70
2023/12/30 00:52:42;;;;;;;9.10;2.80;;;6.20;99.90;;;;;;4999445;28;20034;-70
2023/12/30 00:55:08;;;;;;;8.05;1.80;;;6.20;99.90;;;;;;5001481;28;20021;-70
2023/12/30 00:57:33;;;;;;;6.25;1.95;;;6.30;99.90;;;;;;5003372;28;20073;-70
2023/12/30 00:59:59;;;;;;;10.35;2.22;;;6.20;99.90;;;;;;4999870;28;20045;-70
2023/12/30 01:02:25;;;;;;;4.57;1.80;;;6.20;99.90;;;;;;4992927;28;20028;-70
2023/12/30 01:04:51;;;;;;;9.43;2.00;;;6.30;99.90;;;;;;4984069;28;20422;-70
2023/12/30 01:07:16;;;;;;;7.05;2.00;;;6.30;99.90;;;;;;5001114;28;20033;-70
2023/12/30 01:09:42;;;;;;;6.38;1.70;;;6.30;99.90;;;;;;4990753;28;20107;-70
2023/12/30 01:12:08;;;;;;;9.93;2.17;;;6.20;99.90;;;;;;5011698;28;20066;-70
2023/12/30 01:14:34;;;;;;;6.70;1.80;;;6.20;99.90;;;;;;4998758;28;20522;-70
2023/12/30 01:17:00;;;;;;;7.75;1.88;;;6.20;99.90;;;;;;4998847;28;20500;-70
2023/12/30 01:19:25;;;;;;;9.95;1.92;;;6.20;99.90;;;;;;5000816;28;20041;-70
2023/12/30 01:21:51;;;;;;;8.27;1.95;;;6.20;99.90;;;;;;4983334;28;20069;-70
2023/12/30 01:24:17;;;;;;;7.70;2.20;;;6.20;99.90;;;;;;4998925;28;20489;-70
2023/12/30 01:26:43;;;;;;;8.15;2.00;;;6.20;99.90;;;;;;4985101;28;20517;-70
2023/12/30 01:29:08;;;;;;;8.55;1.65;;;6.20;99.90;;;;;;4986765;28;20508;-70
2023/12/30 01:31:34;;;;;;;8.50;2.00;;;6.20;99.90;;;;;;4992988;28;20064;-70
2023/12/30 01:34:01;;;;;;;8.25;1.83;;;6.20;99.90;;;;;;5009334;28;20042;-70
2023/12/30 01:36:26;;;;;;;10.52;1.75;;;6.20;99.90;;;;;;4984654;28;20065;-70
2023/12/30 01:38:52;;;;;;;8.20;2.08;;;6.20;99.90;;;;;;4989644;28;20050;-70
2023/12/30 01:41:21;;;;;;;6.68;1.63;;;6.30;99.90;;;;;;5000363;28;20045;-70
2023/12/30 01:43:47;;;;;;;7.78;1.65;;;6.20;99.90;;;;;;4989512;28;20465;-70
2023/12/30 01:46:13;;;;;;;10.55;1.88;;;6.30;99.90;;;;;;5000808;28;20088;-70
2023/12/30 01:48:39;;;;;;;11.63;2.03;;;6.20;99.90;;;;;;5000854;28;20133;-70
2023/12/30 01:51:08;;;;;;;9.80;2.25;;;6.20;99.90;;;;;;4999299;28;20164;-70
2023/12/30 01:53:39;;;;;;;8.10;1.80;;;6.30;99.90;;;;;;5002555;28;20045;-70
2023/12/30 01:56:08;;;;;;;10.00;1.77;;;6.30;99.90;;;;;;4993979;28;20860;-70
2023/12/30 01:58:34;;;;;;;8.23;1.50;;;6.20;99.90;;;;;;4995916;28;20101;-70
2023/12/30 02:01:00;;;;;;;9.65;2.00;;;6.20;99.90;;;;;;4991946;28;20580;-70
2023/12/30 02:03:27;;;;;;;7.55;1.50;;;6.30;99.90;;;;;;5032993;28;20124;-70
2023/12/30 02:05:53;;;;;;;8.23;2.05;;;6.30;99.90;;;;;;4982109;28;20412;-70
2023/12/30 02:08:19;;;;;;;8.30;1.98;;;6.30;99.90;;;;;;5001453;28;20049;-70
2023/12/30 02:10:46;;;;;;;7.22;1.80;;;6.40;99.90;;;;;;5000981;28;20111;-70
2023/12/30 02:13:11;;;;;;;8.05;1.90;;;6.40;99.90;;;;;;4987293;28;20045;-70
2023/12/30 02:15:37;;;;;;;7.13;1.70;;;6.50;99.90;;;;;;4999744;28;20034;-70
2023/12/30 02:18:03;;;;;;;7.35;1.90;;;6.50;99.90;;;;;;4989804;28;20053;-70
2023/12/30 02:20:30;;;;;;;8.77;1.92;;;6.60;99.90;;;;;;4985769;28;20068;-70
2023/12/30 02:22:56;;;;;;;8.13;1.60;;;6.60;99.90;;;;;;5029983;28;20064;-70
2023/12/30 02:25:22;;;;;;;10.52;1.85;;;6.60;99.90;;;;;;5001904;28;20037;-70
2023/12/30 02:27:47;;;;;;;8.02;1.77;;;6.60;99.90;;;;;;4983525;28;20038;-70
2023/12/30 02:30:14;;;;;;;14.57;1.88;;;6.60;99.90;;;;;;4983849;28;20222;-70
2023/12/30 02:32:40;;;;;;;10.40;1.50;;;6.60;99.90;;;;;;4997288;28;20045;-70
2023/12/30 02:35:06;;;;;;;6.65;2.15;;;6.70;99.90;;;;;;4986818;28;20049;-70
2023/12/30 02:37:32;;;;;;;6.93;1.50;;;6.60;99.90;;;;;;4983212;28;20465;-70
2023/12/30 02:39:57;;;;;;;5.38;1.83;;;6.70;99.90;;;;;;5012481;28;20084;-70
2023/12/30 02:42:23;;;;;;;10.93;2.42;;;6.70;99.90;;;;;;5003500;28;20046;-70
2023/12/30 02:44:49;;;;;;;7.15;1.75;;;6.70;99.90;;;;;;4982475;28;20570;-70
2023/12/30 02:47:15;;;;;;;8.05;2.15;;;6.80;99.90;;;;;;5002997;28;20076;-70
2023/12/30 02:49:45;;;;;;;6.90;1.73;;;6.80;99.90;;;;;;5001773;28;20045;-70
2023/12/30 02:52:11;;;;;;;12.75;1.90;;;6.80;99.90;;;;;;5000111;28;20049;-70
2023/12/30 02:54:37;;;;;;;8.18;1.70;;;6.90;99.90;;;;;;4999689;28;20045;-70
2023/12/30 02:57:04;;;;;;;8.55;2.38;;;6.90;99.90;;;;;;5025817;28;20042;-70
2023/12/30 02:59:30;;;;;;;10.23;2.30;;;6.90;99.90;;;;;;4997911;28;20160;-70
2023/12/30 03:01:56;;;;;;;4.72;1.65;;;6.90;99.90;;;;;;4993905;28;20438;-70
2023/12/30 03:04:22;;;;;;;9.57;2.30;;;6.90;99.90;;;;;;5000365;28;20065;-70
2023/12/30 03:06:48;;;;;;;8.82;2.08;;;7.00;99.90;;;;;;4991761;28;20068;-70
2023/12/30 03:09:14;;;;;;;8.23;1.90;;;6.90;99.90;;;;;;4984257;28;20461;-70
2023/12/30 03:11:40;;;;;;;7.07;2.05;;;7.00;99.90;;;;;;4987634;28;20093;-70
2023/12/30 03:14:06;;;;;;;12.23;2.30;;;7.00;99.90;;;;;;4999718;28;20431;-70
2023/12/30 03:16:32;;;;;;;11.90;2.72;;;7.00;99.90;;;;;;4998078;28;20049;-70
2023/12/30 03:18:58;;;;;;;7.03;1.90;;;7.00;99.90;;;;;;4996041;28;20073;-70
2023/12/30 03:21:25;;;;;;;4.95;1.98;;;7.00;99.90;;;;;;5006959;28;20098;-70
2023/12/30 03:23:50;;;;;;;13.40;1.98;;;7.00;99.90;;;;;;5001311;28;20060;-70
2023/12/30 03:26:16;;;;;;;8.82;2.22;;;7.00;99.90;;;;;;4994464;28;20038;-70
2023/12/30 03:28:43;;;;;;;10.00;1.92;;;7.00;99.90;;;;;;4983607;28;20429;-70
2023/12/30 03:31:20;;;;;;;6.53;2.00;;;7.00;99.90;;;;;;4996236;28;20069;-70
2023/12/30 03:33:45;;;;;;;8.27;1.88;;;7.00;99.90;;;;;;5001177;28;20057;-70
2023/12/30 03:36:11;;;;;;;7.45;1.83;;;7.00;99.90;;;;;;4988410;28;20361;-70
2023/12/30 03:38:37;;;;;;;9.40;1.70;;;6.90;99.90;;;;;;4990634;28;20077;-70
2023/12/30 03:41:03;;;;;;;7.88;2.17;;;6.80;99.90;;;;;;4989469;28;20058;-70
2023/12/30 03:43:28;;;;;;;7.75;1.50;;;6.80;99.90;;;;;;4999435;28;20115;-70
2023/12/30 03:45:54;;;;;;;7.60;1.65;;;6.70;99.90;;;;;;4990603;28;20061;-70
2023/12/30 03:48:20;;;;;;;7.88;2.22;;;6.80;99.90;;;;;;5002014;28;20096;-70
2023/12/30 03:50:46;;;;;;;9.13;1.73;;;6.70;99.90;;;;;;4990832;28;20109;-70
2023/12/30 03:53:12;;;;;;;9.77;1.80;;;6.60;99.90;;;;;;5023256;28;20115;-70
2023/12/30 03:55:37;;;;;;;7.95;1.98;;;6.60;99.90;;;;;;4991982;28;20780;-70
2023/12/30 03:58:03;;;;;;;7.78;1.80;;;6.60;99.90;;;;;;5004881;28;20042;-70
2023/12/30 04:00:29;;;;;;;8.50;2.13;;;6.50;99.90;;;;;;4988573;28;20435;-70
2023/12/30 04:02:55;;;;;;;13.10;2.45;;;6.50;99.90;;;;;;4999438;28;20037;-70
2023/12/30 04:05:22;;;;;;;8.63;1.73;;;6.40;99.90;;;;;;5000977;28;20114;-70
2023/12/30 04:07:48;;;;;;;8.60;1.95;;;6.40;99.90;;;;;;5029681;28;20060;-70
2023/12/30 04:10:17;;;;;;;14.30;2.28;;;6.40;99.90;;;;;;5002192;28;20064;-70
2023/12/30 04:12:43;;;;;;;10.88;2.20;;;6.40;99.90;;;;;;4988966;28;20040;-70
2023/12/30 04:15:10;;;;;;;8.05;1.55;;;6.50;99.90;;;;;;5001788;28;20073;-70
2023/12/30 04:17:36;;;;;;;14.32;3.25;;;6.50;99.90;;;;;;5002435;28;20501;-70
2023/12/30 04:20:02;;;;;;;9.32;2.20;;;6.60;99.90;;;;;;4996498;28;20037;-70
2023/12/30 04:22:28;;;;;;;13.77;2.20;;;6.70;99.90;;;;;;5004299;28;20030;-70
2023/12/30 04:24:56;;;;;;;8.23;2.17;;;6.70;99.90;;;;;;4988174;28;20110;-70
2023/12/30 04:27:21;;;;;;;8.43;2.10;;;6.70;99.90;;;;;;4986279;28;20046;-70
2023/12/30 04:29:47;;;;;;;13.57;3.30;;;6.80;99.90;;;;;;5003896;28;20048;-70
2023/12/30 04:32:13;;;;;;;9.10;1.90;;;6.90;99.90;;;;;;5004401;28;20046;-70
2023/12/30 04:34:39;;;;;;;8.07;2.38;;;6.90;99.90;;;;;;4986080;28;20465;-70
2023/12/30 04:37:04;;;;;;;10.98;2.55;;;6.90;99.90;;;;;;5034634;28;20085;-70
2023/12/30 04:39:30;;;;;;;11.05;2.05;;;6.90;99.90;;;;;;5024138;28;20048;-70
2023/12/30 04:41:56;;;;;;;15.32;2.33;;;6.90;99.90;;;;;;4992164;28;20038;-70
2023/12/30 04:44:22;;;;;;;13.50;2.05;;;6.90;99.90;;;;;;4999806;28;20527;-70
2023/12/30 04:46:47;;;;;;;8.57;1.90;;;6.90;99.90;;;;;;5000734;28;20469;-70
2023/12/30 04:49:13;;;;;;;7.10;1.77;;;6.90;99.90;;;;;;5001752;28;21540;-70
2023/12/30 04:51:39;;;;;;;8.20;2.13;;;6.80;99.90;;;;;;5003352;28;20046;-70
2023/12/30 04:54:05;;;;;;;10.15;2.28;;;6.80;99.90;;;;;;4999755;28;20080;-70
2023/12/30 04:56:31;;;;;;;11.90;2.30;;;6.80;99.90;;;;;;4987879;28;20061;-70
2023/12/30 04:58:58;;;;;;;9.63;2.00;;;6.80;99.90;;;;;;5019745;28;20080;-70
2023/12/30 05:01:24;;;;;;;7.55;2.13;;;6.80;99.90;;;;;;4986472;28;20429;-70
2023/12/30 05:03:50;;;;;;;6.72;1.67;;;6.70;99.90;;;;;;4987112;28;20266;-70
2023/12/30 05:06:25;;;;;;;9.70;2.05;;;6.70;99.90;;;;;;5002815;28;20042;-70
2023/12/30 05:08:53;;;;;;;7.53;1.70;;;6.60;99.90;;;;;;5007502;28;20084;-70
2023/12/30 05:11:19;;;;;;;10.77;2.10;;;6.60;99.90;;;;;;5036115;28;20108;-70
2023/12/30 05:13:46;;;;;;;10.13;2.22;;;6.50;99.90;;;;;;4986880;28;20056;-70
2023/12/30 05:16:11;;;;;;;8.65;2.30;;;6.50;99.90;;;;;;4986115;28;20054;-70
2023/12/30 05:18:37;;;;;;;10.65;2.03;;;6.50;99.90;;;;;;5002772;28;20488;-70
2023/12/30 05:21:03;;;;;;;6.65;1.83;;;6.50;99.90;;;;;;5016521;28;20119;-70
2023/12/30 05:23:32;;;;;;;8.45;2.28;;;6.50;99.90;;;;;;5001932;28;20041;-70
2023/12/30 05:25:58;;;;;;;10.90;2.60;;;6.50;99.90;;;;;;4993986;28;20048;-70
2023/12/30 05:28:24;;;;;;;11.43;2.47;;;6.50;99.90;;;;;;4997675;28;20404;-70
2023/12/30 05:30:50;;;;;;;12.38;2.55;;;6.50;99.90;;;;;;5004313;28;20146;-70
2023/12/30 05:33:16;;;;;;;6.57;2.08;;;6.50;99.90;;;;;;5003289;28;20149;-70
2023/12/30 05:35:41;;;;;;;16.95;2.70;;;6.40;99.90;;;;;;5005771;28;20129;-70
2023/12/30 05:38:07;;;;;;;10.02;2.33;;;6.40;99.90;;;;;;4999529;28;20095;-70
2023/12/30 05:40:33;;;;;;;9.20;2.47;;;6.50;99.90;;;;;;5003417;28;20473;-70
2023/12/30 05:42:59;;;;;;;11.05;2.30;;;6.40;99.90;;;;;;5000548;28;20464;-70
2023/12/30 05:45:24;;;;;;;9.77;2.60;;;6.40;99.90;;;;;;4989786;28;20038;-70
2023/12/30 05:47:50;;;;;;;10.80;2.05;;;6.40;99.90;;;;;;5002203;28;20069;-70
2023/12/30 05:50:16;;;;;;;13.63;2.53;;;6.50;99.90;;;;;;5002108;28;20049;-70
2023/12/30 05:52:42;;;;;;;11.40;2.17;;;6.50;99.90;;;;;;4996032;28;20100;-70
2023/12/30 05:55:08;;;;;;;7.80;1.92;;;6.50;99.90;;;;;;4998226;28;20450;-70
2023/12/30 05:57:34;;;;;;;11.57;2.35;;;6.60;99.90;;;;;;4986046;28;20069;-70
2023/12/30 06:00:00;;;;;;;11.15;2.15;;;6.60;99.90;;;;;;4999788;28;20050;-70
2023/12/30 06:02:25;;;;;;;12.82;2.80;;;6.70;99.90;;;;;;5034018;28;20042;-70
2023/12/30 06:04:51;;;;;;;14.20;2.65;;;6.70;99.90;;;;;;4996819;28;20100;-70
2023/12/30 06:07:17;;;;;;;14.02;2.42;;;6.70;99.90;;;;;;4984801;28;20047;-70
2023/12/30 06:09:43;;;;;;;14.48;2.30;;;6.60;99.90;;;;;;5029628;28;20533;-70
2023/12/30 06:12:09;;;;;;;10.00;2.50;;;6.60;99.90;;;;;;5002503;28;20046;-70
2023/12/30 06:14:36;;;;;;;10.93;2.40;;;6.60;99.90;;;;;;4998044;28;20152;-70
2023/12/30 06:17:02;;;;;;;10.20;2.42;;;6.60;99.90;;;;;;4993333;28;20480;-70
2023/12/30 06:19:28;;;;;;;11.32;2.17;;;6.50;99.90;;;;;;4995369;28;20111;-70
2023/12/30 06:21:54;;;;;;;6.78;1.80;;;6.50;99.90;;;;;;4986415;28;20070;-70
2023/12/30 06:24:21;;;;;;;15.50;2.10;;;6.50;99.90;;;;;;5005066;28;20141;-70
2023/12/30 06:26:47;;;;;;;10.48;2.28;;;6.50;99.90;;;;;;4998892;28;20042;-70
2023/12/30 06:29:12;;;;;;;16.02;2.25;;;6.50;99.90;;;;;;5012122;28;20602;-70
2023/12/30 06:31:42;;;;;;;10.80;2.05;;;6.50;99.90;;;;;;4986877;28;20048;-70
2023/12/30 06:34:08;;;;;;;12.20;2.08;;;6.50;99.90;;;;;;4997460;28;20139;-70
2023/12/30 06:36:34;;;;;;;9.13;1.65;;;6.50;99.90;;;;;;5002285;28;20060;-70
2023/12/30 06:38:59;;;;;;;10.07;1.65;;;6.50;99.90;;;;;;4999298;28;20412;-70
2023/12/30 06:41:25;;;;;;;10.05;2.08;;;6.50;99.90;;;;;;5002436;28;20474;-70
2023/12/30 06:43:51;;;;;;;10.73;2.17;;;6.50;99.90;;;;;;5002705;28;20137;-70
2023/12/30 06:46:20;;;;;;;8.73;2.10;;;6.50;99.90;;;;;;5002766;28;20042;-70
2023/12/30 06:48:47;;;;;;;11.48;2.45;;;6.40;99.90;;;;;;4980737;28;20944;-70
2023/12/30 06:51:13;;;;;;;12.63;2.20;;;6.40;99.90;;;;;;4993967;28;20042;-70
2023/12/30 06:53:39;;;;;;;14.02;2.35;;;6.30;99.90;;;;;;4989104;28;20057;-70
2023/12/30 06:56:08;;;;;;;17.70;2.38;;;6.30;99.90;;;;;;4985787;28;20046;-70
2023/12/30 06:58:34;;;;;;;8.93;2.17;;;6.30;99.90;;;;;;4985839;28;20041;-70
2023/12/30 07:01:00;;;;;;;9.15;2.00;;;6.30;99.90;;;;;;4995402;28;20041;-70
2023/12/30 07:03:25;;;;;;;10.88;2.50;;;6.30;99.90;;;;;;5000971;28;20045;-70
2023/12/30 07:05:51;;;;;;;12.93;2.60;;;6.30;99.90;;;;;;4999197;28;20129;-70
2023/12/30 07:08:17;;;;;;;12.48;2.35;;;6.30;99.90;;;;;;5005462;28;20137;-70
2023/12/30 07:10:46;;;;;;;9.48;2.38;;;6.30;99.90;;;;;;5002480;28;20042;-70
2023/12/30 07:13:12;;;;;;;10.13;2.58;;;6.20;99.90;;;;;;5000796;28;20450;-70
2023/12/30 07:15:38;;;;;;;11.23;2.67;;;6.20;99.90;;;;;;5028098;28;20053;-70
2023/12/30 07:18:04;;;;;;;11.55;2.40;;;6.20;99.90;;;;;;5005389;28;20045;-70
2023/12/30 07:20:30;;;;;;;9.40;2.47;;;6.20;99.90;;;;;;5006079;28;20038;-70
2023/12/30 07:22:56;;;;;;;9.15;2.20;;;6.20;99.90;;;;;;5006657;28;20046;-70
2023/12/30 07:25:22;;;;;;;12.68;2.25;;;6.20;99.90;;;;;;4990714;28;20176;-70
2023/12/30 07:27:49;;;;;;;6.38;2.30;;;6.20;99.90;;;;;;5019172;28;20525;-70
2023/12/30 07:30:15;;;;;;;10.70;2.37;;;6.10;99.90;;;;;;4987294;28;20038;-70
2023/12/30 07:32:40;;;;;;;9.25;2.25;;;6.10;99.90;;;;;;4988862;28;20263;-70
2023/12/30 07:35:07;;;;;;;7.22;2.05;;;6.10;99.90;;;;;;5035452;28;20374;-70
2023/12/30 07:37:34;;;;;;;11.88;2.45;;;6.20;99.90;;;;;;4987240;28;20118;-70
2023/12/30 07:40:01;;;;;;;11.75;2.30;;;6.10;99.90;;;;;;4988541;28;20447;-70
2023/12/30 07:42:27;;;;;;;13.90;2.53;;;6.10;99.90;;;;;;5004500;28;20053;-70
2023/12/30 07:44:53;;;;;;;10.32;1.83;;;6.20;99.90;;;;;;4993621;28;20045;-70
2023/12/30 07:47:19;;;;;;;11.20;1.90;;;6.20;99.90;;;;;;5013577;28;20382;-70
2023/12/30 07:49:46;;;;;;;11.73;2.17;;;6.20;99.90;;;;;;5016769;28;20049;-70
2023/12/30 07:52:12;;;;;;;9.95;2.40;;;6.20;99.90;;;;;;5004809;28;20099;-70
2023/12/30 07:54:38;;;;;;;8.25;2.35;;;6.20;99.90;;;;;;5001581;28;20057;-70
2023/12/30 07:57:04;;;;;;;10.30;2.80;;;6.30;99.90;;;;;;4997971;28;20065;-70
2023/12/30 07:59:30;;;;;;;15.23;2.50;;;6.30;99.90;;;;;;5004676;28;20041;-70
2023/12/30 08:01:56;;;;;;;11.00;2.40;;;6.30;99.90;;;;;;5003654;28;20475;-70
2023/12/30 08:04:23;;;;;;;8.82;2.10;;;6.30;99.90;;;;;;4992819;28;20103;-70
2023/12/30 08:06:49;;;;;;;8.70;2.42;;;6.30;99.90;;;;;;5001743;28;20431;-70
2023/12/30 08:09:15;;;;;;;6.60;2.20;;;6.30;99.90;;;;;;5017620;28;20041;-70
2023/12/30 08:11:42;;;;;;;10.57;2.10;;;6.30;99.90;;;;;;5000810;28;20129;-70
2023/12/30 08:14:08;;;;;;;16.48;2.38;;;6.30;99.90;;;;;;5000743;28;20117;-70
2023/12/30 08:16:37;;;;;;;10.93;1.73;;;6.30;99.90;;;;;;4999896;28;20034;-70
2023/12/30 08:19:03;;;;;;;8.93;1.98;;;6.40;99.90;;;;;;5005306;28;20081;-70
2023/12/30 08:21:30;;;;;;;11.13;2.22;;;6.30;99.90;;;;;;4988670;28;20398;-70
2023/12/30 08:23:57;;;;;;;11.13;2.03;;;6.30;99.90;;;;;;4994513;28;20378;-70
2023/12/30 08:26:23;;;;;;;12.98;2.75;;;6.30;99.90;;;;;;5029884;28;20077;-70
2023/12/30 08:28:51;;;;;;;9.73;1.90;;;6.30;99.90;;;;;;4986727;28;20068;-70
2023/12/30 08:31:17;;;;;;;11.75;2.22;;;6.30;99.90;;;;;;5001675;28;20042;-70
2023/12/30 08:33:43;;;;;;;8.23;3.13;;;6.20;99.90;;;;;;4987757;28;20045;-70
2023/12/30 08:36:09;;;;;;;6.85;1.95;;;6.20;99.90;;;;;;4998729;28;20536;-70
2023/12/30 08:38:35;;;;;;;8.68;2.10;;;6.20;99.90;;;;;;4998579;28;20038;-70
2023/12/30 08:41:02;;;;;;;11.85;2.30;;;6.20;99.90;;;;;;5031569;28;20045;-70
2023/12/30 08:43:28;;;;;;;10.57;2.03;;;6.10;99.90;;;;;;5015816;28;20118;-70
2023/12/30 08:45:54;;;;;;;10.65;2.30;;;6.10;99.90;;;;;;5013169;28;20752;-70
2023/12/30 08:48:20;;;;;;;12.32;2.97;;;6.10;99.90;;;;;;4988636;28;20053;-70
2023/12/30 08:50:45;;;;;;;5.88;2.25;;;6.10;99.90;;;;;;5001670;28;20096;-70
2023/12/30 08:53:12;;;;;;;9.73;2.65;;;6.10;99.90;;;;;;4995669;28;20528;-70
2023/12/30 08:55:38;;;;;;;10.15;2.13;;;6.10;99.90;;;;;;5026879;28;20081;-70
2023/12/30 08:58:04;;;;;;;13.38;2.40;;;6.10;99.90;;;;;;4996817;28;20077;-70
2023/12/30 09:00:30;;;;;;;8.30;1.95;;;6.20;99.90;;;;;;4985397;28;20034;-70
2023/12/30 09:02:56;;;;;;;12.98;2.10;;;6.20;99.90;;;;;;4998676;28;20404;-70
2023/12/30 09:05:22;;;;;;;14.05;2.72;;;6.20;99.90;;;;;;5040431;28;20037;-70
2023/12/30 09:07:49;;;;;;;8.85;2.47;;;6.20;99.90;;;;;;4997666;28;20037;-70
2023/12/30 09:10:17;;;;;;;9.48;2.15;;;6.30;99.90;;;;;;4999980;28;20126;-70
2023/12/30 09:12:44;;;;;;;10.85;2.28;;;6.20;99.90;;;;;;4996871;28;20065;-70
2023/12/30 09:15:09;;;;;;;11.23;2.22;;;6.30;99.90;;;;;;4989969;28;20125;-70
2023/12/30 09:17:35;;;;;;;12.77;2.53;;;6.30;99.90;;;;;;5003251;28;20428;-70
2023/12/30 09:20:01;;;;;;;13.23;2.35;;;6.40;99.90;;;;;;5003548;28;20046;-70
2023/12/30 09:22:27;;;;;;;9.02;2.08;;;6.40;99.90;;;;;;5022159;28;20040;-70
2023/12/30 09:24:54;;;;;;;11.43;2.50;;;6.40;99.90;;;;;;4996147;28;20081;-70
2023/12/30 09:27:21;;;;;;;8.02;1.83;;;6.40;99.90;;;;;;4987532;28;20038;-70
2023/12/30 09:29:47;;;;;;;11.88;2.17;;;6.40;99.90;;;;;;4984052;28;20080;-70
2023/12/30 09:32:12;;;;;;;12.70;1.88;;;6.30;99.90;;;;;;5031858;28;20133;-70
2023/12/30 09:34:38;;;;;;;7.65;1.65;;;6.30;99.90;;;;;;5026243;28;20041;-70
2023/12/30 09:37:04;;;;;;;6.85;2.65;;;6.40;99.90;;;;;;5032081;28;20097;-70
2023/12/30 09:39:30;;;;;;;11.18;2.28;;;6.40;99.90;;;;;;5017782;28;20050;-70
2023/12/30 09:41:56;;;;;;;15.05;2.25;;;6.50;99.90;;;;;;4996855;28;20061;-70
2023/12/30 09:44:25;;;;;;;11.10;2.28;;;6.50;99.90;;;;;;4995757;28;20064;-70
2023/12/30 09:46:52;;;;;;;6.82;1.52;;;6.50;99.90;;;;;;4984750;28;20054;-70
2023/12/30 09:49:20;;;;;;;13.13;3.08;;;6.50;99.90;;;;;;4987795;28;20059;-70
2023/12/30 09:51:46;;;;;;;11.85;2.58;;;6.60;99.90;;;;;;4989061;28;20141;-70
2023/12/30 09:54:12;;;;;;;8.52;1.98;;;6.60;99.90;;;;;;5000275;28;20139;-70
2023/12/30 09:56:41;;;;;;;7.65;1.73;;;6.70;99.90;;;;;;4980863;28;20081;-70
2023/12/30 09:59:08;;;;;;;9.80;2.70;;;6.80;99.90;;;;;;5016020;28;20056;-70
2023/12/30 10:01:34;;;;;;;11.60;2.38;;;6.80;99.90;;;;;;4984485;28;20049;-70
2023/12/30 10:04:03;;;;;;;12.23;2.47;;;6.90;99.90;;;;;;4986077;28;20056;-70
2023/12/30 10:06:29;;;;;;;12.65;2.42;;;6.90;99.90;;;;;;4996970;28;20046;-70
2023/12/30 10:08:55;;;;;;;13.43;1.83;;;6.80;99.90;;;;;;4983607;28;20126;-70
2023/12/30 10:11:21;;;;;;;9.80;1.85;;;6.90;99.90;;;;;;4997699;28;20124;-70
2023/12/30 10:13:46;;;;;;;9.98;2.17;;;6.90;99.90;;;;;;4995659;28;20524;-71
2023/12/30 10:16:12;;;;;;;15.50;2.38;;;7.00;99.90;;;;;;4979141;28;20535;-70
2023/12/30 10:18:39;;;;;;;5.80;1.35;;;7.00;99.90;;;;;;4992375;28;20048;-70
2023/12/30 10:21:06;;;;;;;10.45;2.40;;;7.00;99.90;;;;;;5023251;28;20045;-70
2023/12/30 10:23:33;;;;;;;13.00;2.33;;;7.00;99.90;;;;;;4992339;28;20049;-70
2023/12/30 10:26:00;;;;;;;10.23;2.13;;;7.00;99.90;;;;;;4981493;28;20042;-70
2023/12/30 10:28:27;;;;;;;12.07;2.28;;;7.00;99.90;;;;;;4994820;28;20448;-70
2023/12/30 10:31:03;;;;;;;9.70;2.03;;;7.00;99.90;;;;;;4998074;28;20120;-70
2023/12/30 10:33:30;;;;;;;8.93;2.33;;;7.00;99.90;;;;;;4991530;28;20449;-70
2023/12/30 10:35:56;;;;;;;6.53;1.88;;;7.00;99.90;;;;;;4985006;28;20141;-70
2023/12/30 10:38:24;;;;;;;12.65;2.25;;;7.10;99.90;;;;;;5010676;28;21117;-70
2023/12/30 10:40:50;;;;;;;6.40;2.03;;;7.10;99.90;;;;;;4984512;28;20058;-70
2023/12/30 10:43:20;;;;;;;7.05;1.90;;;7.10;99.90;;;;;;4997131;28;20135;-70
2023/12/30 10:45:59;;;;;;;8.25;2.20;;;7.10;99.90;;;;;;4985888;28;20499;-70
2023/12/30 10:48:31;;;;;;;9.32;2.25;;;7.10;99.90;;;;;;5013638;28;20077;-70
2023/12/30 10:50:58;;;;;;;11.30;2.35;;;7.10;99.90;;;;;;5009808;28;20050;-70
2023/12/30 10:53:32;;;;;;;14.63;3.13;;;7.00;99.90;;;;;;4998121;28;20078;-70
2023/12/30 10:56:00;;;;;;;10.07;2.45;;;7.00;99.90;;;;;;4994615;28;20121;-70
2023/12/30 10:58:27;;;;;;;8.35;2.72;;;7.00;99.90;;;;;;4996801;28;20141;-70
2023/12/30 11:00:57;;;;;;;10.32;2.88;;;7.00;99.90;;;;;;5010098;28;20092;-70
2023/12/30 11:03:24;;;;;;;16.35;3.10;;;7.00;99.90;;;;;;4987929;28;20053;-70
2023/12/30 11:06:01;;;;;;;10.10;3.10;;;7.00;99.90;;;;;;5000060;28;20257;-70
2023/12/30 11:08:27;;;;;;;10.30;2.60;;;7.10;99.90;;;;;;4995282;28;20049;-70
2023/12/30 11:10:54;;;;;;;9.50;2.50;;;7.20;99.90;;;;;;4982331;28;20045;-70
2023/12/30 11:13:20;;;;;;;9.85;2.30;;;7.20;99.90;;;;;;4992405;28;20057;-70
2023/12/30 11:15:46;;;;;;;14.32;2.72;;;7.30;99.90;;;;;;4996282;28;20033;-70
2023/12/30 11:18:15;;;;;;;11.27;2.40;;;7.40;99.90;;;;;;4999985;28;20038;-70
2023/12/30 11:20:46;;;;;;;10.40;2.30;;;7.50;99.90;;;;;;4983299;28;20042;-70
2023/12/30 11:23:14;;;;;;;13.43;2.47;;;7.50;99.90;;;;;;4990611;28;20039;-70
2023/12/30 11:25:43;;;;;;;11.38;2.30;;;7.50;99.90;;;;;;4994825;28;20450;-70
2023/12/30 11:28:17;;;;;;;9.48;2.15;;;7.60;99.90;;;;;;5006958;28;20663;-70
2023/12/30 11:30:45;;;;;;;13.88;2.50;;;7.60;99.90;;;;;;4975987;28;20047;-71
2023/12/30 11:33:13;;;;;;;11.90;2.40;;;7.70;99.90;;;;;;4993606;28;20068;-70
2023/12/30 11:35:39;;;;;;;11.13;2.33;;;7.80;99.90;;;;;;4996255;28;20100;-70
2023/12/30 11:38:09;;;;;;;9.38;2.30;;;7.80;99.90;;;;;;4973859;28;20100;-70
2023/12/30 11:40:41;;;;;;;12.80;2.83;;;7.80;99.90;;;;;;4984053;28;20113;-70
2023/12/30 11:43:10;;;;;;;4.80;2.20;;;7.80;99.90;;;;;;4996020;28;20050;-70
2023/12/30 11:45:37;;;;;;;9.77;2.13;;;7.70;99.90;;;;;;4980166;28;20266;-70
2023/12/30 11:48:04;;;;;;;9.50;2.17;;;7.80;99.90;;;;;;4991042;28;20204;-70
2023/12/30 11:50:29;;;;;;;7.28;1.90;;;7.70;99.90;;;;;;4983239;28;20076;-70
2023/12/30 11:52:56;;;;;;;7.13;2.10;;;7.80;99.90;;;;;;5001932;28;20089;-70
2023/12/30 11:55:23;;;;;;;11.25;2.17;;;7.70;99.90;;;;;;4994825;28;20129;-70
2023/12/30 11:57:54;;;;;;;7.93;2.15;;;7.80;99.90;;;;;;4999681;28;20111;-70
2023/12/30 12:00:28;;;;;;;8.75;1.98;;;7.80;99.90;;;;;;4984339;28;20038;-70
2023/12/30 12:02:55;;;;;;;12.18;2.28;;;7.70;99.90;;;;;;4982135;28;20298;-70
2023/12/30 12:05:22;;;;;;;8.68;2.10;;;7.70;99.90;;;;;;5002358;28;20477;-70
2023/12/30 12:07:48;;;;;;;7.18;2.35;;;7.60;99.90;;;;;;4997943;28;20048;-70
2023/12/30 12:10:15;;;;;;;7.72;2.00;;;7.60;99.90;;;;;;4994115;28;20285;-70
2023/12/30 12:12:43;;;;;;;8.40;1.88;;;7.60;99.90;;;;;;4980046;28;20081;-70
2023/12/30 12:15:12;;;;;;;13.80;2.28;;;7.70;99.90;;;;;;5003169;28;20503;-70
2023/12/30 12:17:38;;;;;;;6.03;1.63;;;7.70;99.90;;;;;;5013931;28;20603;-70
2023/12/30 12:20:07;;;;;;;8.40;2.05;;;7.70;99.90;;;;;;4995766;28;20041;-70
2023/12/30 12:22:33;;;;;;;7.85;2.05;;;7.80;99.90;;;;;;5031815;28;20041;-70
2023/12/30 12:25:02;;;;;;;7.63;2.25;;;7.80;99.90;;;;;;4996565;28;20100;-70
2023/12/30 12:27:29;;;;;;;10.15;2.05;;;7.90;99.90;;;;;;4990482;28;20034;-70
2023/12/30 12:29:56;;;;;;;13.68;2.25;;;7.90;99.90;;;;;;4998211;28;20041;-70
2023/12/30 12:32:23;;;;;;;11.07;2.53;;;8.00;99.90;;;;;;5014504;28;20107;-70
2023/12/30 12:34:50;;;;;;;10.43;2.42;;;8.00;99.90;;;;;;4998320;28;20140;-70
2023/12/30 12:37:16;;;;;;;10.32;2.33;;;8.00;99.90;;;;;;4998157;28;20262;-70
2023/12/30 12:39:45;;;;;;;11.20;2.50;;;7.90;99.90;;;;;;5000745;28;20037;-70
2023/12/30 12:42:15;;;;;;;9.48;2.53;;;7.90;99.90;;;;;;5003229;28;20072;-70
2023/12/30 12:44:41;;;;;;;11.40;2.50;;;7.90;99.90;;;;;;4995981;28;20118;-70
2023/12/30 12:47:09;;;;;;;7.22;2.15;;;8.00;99.90;;;;;;4983708;28;20113;-70
2023/12/30 12:49:35;;;;;;;12.50;2.42;;;8.00;99.90;;;;;;4987471;28;20049;-70